createdAt,value
2019-03-18T00:03:58.159Z,19.60
2019-03-18T00:08:10.864Z,19.67
2019-03-18T00:12:23.307Z,20.07
2019-03-18T00:16:36.858Z,15.13
2019-03-18T00:20:49.286Z,17.83
2019-03-18T00:25:02.235Z,16.70
2019-03-18T00:29:14.724Z,15.60
2019-03-18T00:33:27.120Z,16.37
2019-03-18T00:37:39.819Z,23.70
2019-03-18T00:41:52.267Z,17.73
2019-03-18T00:46:04.596Z,17.53
2019-03-18T00:50:17.481Z,18.80
2019-03-18T00:54:30.112Z,23.97
2019-03-18T00:58:42.811Z,19.93
2019-03-18T01:02:55.377Z,21.30
2019-03-18T01:07:07.792Z,18.37
2019-03-18T01:11:20.191Z,16.77
2019-03-18T01:15:32.895Z,20.57
2019-03-18T01:19:45.680Z,15.87
2019-03-18T01:23:58.124Z,24.17
2019-03-18T01:28:10.841Z,22.83
2019-03-18T01:32:23.208Z,16.07
2019-03-18T01:36:35.617Z,20.33
2019-03-18T01:40:48.509Z,20.07
2019-03-18T01:45:01.060Z,20.03
2019-03-18T01:49:13.368Z,21.53
2019-03-18T01:53:26.232Z,16.60
2019-03-18T01:57:38.797Z,18.67
2019-03-18T02:01:51.129Z,14.37
2019-03-18T02:06:03.925Z,20.00
2019-03-18T02:10:17.708Z,19.67
2019-03-18T02:14:30.118Z,16.97
2019-03-18T02:18:43.368Z,15.63
2019-03-18T02:22:55.895Z,19.10
2019-03-18T02:27:08.660Z,18.67
2019-03-18T02:31:21.122Z,18.40
2019-03-18T02:35:33.521Z,17.67
2019-03-18T02:39:46.326Z,21.10
2019-03-18T02:43:58.914Z,18.97
2019-03-18T02:48:11.189Z,18.53
2019-03-18T02:52:23.675Z,19.00
2019-03-18T02:56:36.282Z,19.00
2019-03-18T03:00:48.742Z,15.00
2019-03-18T03:05:01.152Z,17.70
2019-03-18T03:09:13.949Z,12.70
2019-03-18T03:13:26.402Z,18.17
2019-03-18T03:17:38.710Z,19.33
2019-03-18T03:21:51.624Z,16.13
2019-03-18T03:26:04.120Z,14.03
2019-03-18T03:30:16.968Z,17.63
2019-03-18T03:34:29.410Z,13.87
2019-03-18T03:38:41.834Z,17.97
2019-03-18T03:42:54.251Z,17.90
2019-03-18T03:47:07.020Z,17.83
2019-03-18T03:51:19.475Z,13.70
2019-03-18T03:55:32.161Z,14.97
2019-03-18T03:59:44.880Z,20.10
2019-03-18T04:03:58.572Z,17.80
2019-03-18T04:08:10.979Z,13.47
2019-03-18T04:12:24.422Z,18.90
2019-03-18T04:16:38.012Z,13.73
2019-03-18T04:20:50.612Z,12.77
2019-03-18T04:25:02.985Z,18.33
2019-03-18T04:29:16.287Z,15.30
2019-03-18T04:33:29.019Z,13.33
2019-03-18T04:37:41.584Z,14.03
2019-03-18T04:41:53.881Z,22.90
2019-03-18T04:46:06.678Z,13.53
2019-03-18T04:50:19.136Z,15.90
2019-03-18T04:54:31.619Z,15.07
2019-03-18T04:58:44.488Z,15.73
2019-03-18T05:02:56.985Z,15.83
2019-03-18T05:07:09.199Z,13.17
2019-03-18T05:11:21.506Z,11.07
2019-03-18T05:15:34.199Z,11.83
2019-03-18T05:19:46.651Z,9.10
2019-03-18T05:23:59.185Z,13.33
2019-03-18T05:28:11.957Z,17.97
2019-03-18T05:32:24.372Z,14.30
2019-03-18T05:36:37.095Z,14.53
2019-03-18T05:40:49.648Z,18.27
2019-03-18T05:45:02.072Z,17.20
2019-03-18T05:49:14.384Z,15.10
2019-03-18T05:53:27.374Z,19.83
2019-03-18T05:57:39.827Z,13.40
2019-03-18T06:01:52.572Z,17.53
2019-03-18T06:06:05.331Z,11.43
2019-03-18T06:10:17.789Z,16.87
2019-03-18T06:14:30.088Z,14.00
2019-03-18T06:18:42.784Z,12.67
2019-03-18T06:22:55.373Z,14.83
2019-03-18T06:27:08.336Z,12.47
2019-03-18T06:31:20.691Z,16.40
2019-03-18T06:35:33.167Z,14.23
2019-03-18T06:39:45.991Z,14.83
2019-03-18T06:43:58.553Z,11.73
2019-03-18T06:48:11.035Z,15.90
2019-03-18T06:52:23.648Z,14.23
2019-03-18T06:56:36.102Z,17.53
2019-03-18T07:00:48.521Z,12.87
2019-03-18T07:05:00.991Z,15.30
2019-03-18T07:09:14.264Z,10.97
2019-03-18T07:13:26.578Z,14.73
2019-03-18T07:17:39.272Z,13.93
2019-03-18T07:21:51.888Z,9.30
2019-03-18T07:26:04.607Z,13.77
2019-03-18T07:30:17.063Z,11.77
2019-03-18T07:34:29.485Z,12.13
2019-03-18T07:38:43.088Z,13.27
2019-03-18T07:42:55.330Z,13.07
2019-03-18T07:47:08.131Z,11.53
2019-03-18T07:51:20.584Z,11.03
2019-03-18T07:55:32.979Z,12.23
2019-03-18T07:59:46.344Z,9.20
2019-03-18T08:04:00.355Z,8.07
2019-03-18T08:08:13.156Z,17.47
2019-03-18T08:12:25.636Z,13.93
2019-03-18T08:16:38.610Z,13.00
2019-03-18T08:20:51.075Z,13.20
2019-03-18T08:25:03.514Z,9.33
2019-03-18T08:29:16.379Z,15.00
2019-03-18T08:33:28.827Z,12.67
2019-03-18T08:37:42.379Z,9.97
2019-03-18T08:41:55.083Z,14.47
2019-03-18T08:46:07.797Z,11.07
2019-03-18T08:50:20.357Z,11.67
2019-03-18T08:54:32.730Z,11.73
2019-03-18T08:58:45.341Z,14.00
2019-03-18T09:02:57.783Z,11.03
2019-03-18T09:07:10.106Z,11.67
2019-03-18T09:11:23.076Z,9.20
2019-03-18T09:15:35.650Z,12.00
2019-03-18T09:19:47.968Z,10.47
2019-03-18T09:24:00.711Z,13.23
2019-03-18T09:28:13.342Z,12.83
2019-03-18T09:32:25.656Z,9.73
2019-03-18T09:36:38.637Z,11.40
2019-03-18T09:40:51.172Z,8.60
2019-03-18T09:45:03.658Z,6.77
2019-03-18T09:49:21.398Z,8.30
2019-03-18T09:53:30.463Z,8.50
2019-03-18T09:57:42.774Z,14.80
2019-03-18T10:01:55.375Z,9.87
2019-03-18T10:06:07.871Z,9.60
2019-03-18T10:10:20.227Z,7.40
2019-03-18T10:14:32.813Z,12.77
2019-03-18T10:18:45.436Z,9.70
2019-03-18T10:22:58.178Z,7.77
2019-03-18T10:27:11.075Z,8.77
2019-03-18T10:31:23.430Z,8.13
2019-03-18T10:35:35.732Z,8.27
2019-03-18T10:39:48.434Z,7.40
2019-03-18T10:44:00.991Z,5.10
2019-03-18T10:48:13.468Z,6.97
2019-03-18T10:52:26.212Z,5.40
2019-03-18T10:56:41.125Z,5.40
2019-03-18T11:00:52.739Z,5.70
2019-03-18T11:05:08.035Z,4.50
2019-03-18T11:09:19.481Z,6.87
2019-03-18T11:13:32.586Z,6.47
2019-03-18T11:17:45.473Z,7.47
2019-03-18T11:21:58.216Z,6.63
2019-03-18T11:26:10.952Z,6.53
2019-03-18T11:30:23.568Z,7.67
2019-03-18T11:34:36.123Z,7.73
2019-03-18T11:38:48.433Z,6.73
2019-03-18T11:43:00.840Z,6.80
2019-03-18T11:47:13.538Z,5.70
2019-03-18T11:51:29.712Z,7.23
2019-03-18T11:55:42.287Z,5.67
2019-03-18T11:59:54.816Z,7.33
2019-03-18T12:04:07.112Z,4.67
2019-03-18T12:08:19.918Z,2.83
2019-03-18T12:12:32.461Z,4.77
2019-03-18T12:16:44.872Z,5.30
2019-03-18T12:20:57.341Z,3.87
2019-03-18T12:25:10.208Z,6.13
2019-03-18T12:29:22.641Z,4.47
2019-03-18T12:33:35.053Z,8.63
2019-03-18T12:37:48.488Z,6.40
2019-03-18T12:42:01.937Z,3.43
2019-03-18T12:46:14.237Z,5.60
2019-03-18T12:50:55.003Z,4.83
2019-03-18T12:54:41.288Z,5.30
2019-03-18T12:58:54.142Z,6.07
2019-03-18T13:03:06.952Z,10.00
2019-03-18T13:07:19.764Z,4.47
2019-03-18T13:11:32.333Z,5.40
2019-03-18T13:15:45.275Z,2.77
2019-03-18T13:19:57.767Z,2.93
2019-03-18T13:24:10.152Z,3.63
2019-03-18T13:28:22.936Z,3.83
2019-03-18T13:32:35.329Z,4.23
2019-03-18T13:36:48.861Z,4.90
2019-03-18T13:41:01.184Z,3.73
2019-03-18T13:45:15.027Z,5.70
2019-03-18T13:49:27.817Z,3.73
2019-03-18T13:53:40.392Z,2.30
2019-03-18T13:57:52.747Z,2.80
2019-03-18T14:02:05.576Z,4.20
2019-03-18T14:06:18.032Z,4.90
2019-03-18T14:10:30.923Z,6.67
2019-03-18T14:14:43.475Z,3.97
2019-03-18T14:18:55.871Z,4.83
2019-03-18T14:23:08.090Z,4.90
2019-03-18T14:27:20.949Z,1.87
2019-03-18T14:31:33.407Z,1.67
2019-03-18T14:35:45.815Z,3.23
2019-03-18T14:39:58.538Z,3.17
2019-03-18T14:44:11.004Z,3.73
2019-03-18T14:48:23.995Z,4.77
2019-03-18T14:52:36.559Z,2.20
2019-03-18T14:56:50.136Z,3.73
2019-03-18T15:01:02.564Z,3.70
2019-03-18T15:05:14.983Z,4.37
2019-03-18T15:09:27.808Z,3.17
2019-03-18T15:13:42.158Z,2.93
2019-03-18T15:17:54.987Z,3.00
2019-03-18T15:22:07.453Z,3.90
2019-03-18T15:26:19.975Z,2.70
2019-03-18T15:30:32.920Z,4.07
2019-03-18T15:34:45.415Z,3.87
2019-03-18T15:38:57.720Z,4.77
2019-03-18T15:43:10.130Z,4.13
2019-03-18T15:47:22.923Z,3.80
2019-03-18T15:51:35.491Z,3.13
2019-03-18T15:55:47.898Z,2.70
2019-03-18T16:00:01.232Z,3.00
2019-03-18T16:04:13.715Z,5.80
2019-03-18T16:08:26.436Z,4.83
2019-03-18T16:12:38.797Z,3.27
2019-03-18T16:17:01.580Z,4.70
2019-03-18T16:21:06.185Z,7.60
2019-03-18T16:25:18.487Z,4.30
2019-03-18T16:29:32.001Z,5.33
2019-03-18T16:33:44.516Z,4.43
2019-03-18T16:37:57.236Z,2.50
2019-03-18T16:42:09.597Z,3.90
2019-03-18T16:46:22.481Z,4.10
2019-03-18T16:50:35.040Z,6.47
2019-03-18T16:54:47.442Z,4.80
2019-03-18T16:59:00.896Z,5.87
2019-03-18T17:03:13.475Z,5.70
2019-03-18T17:07:26.096Z,5.20
2019-03-18T17:11:38.647Z,5.10
2019-03-18T17:15:51.063Z,4.70
2019-03-18T17:20:03.368Z,5.03
2019-03-18T17:24:15.683Z,6.23
2019-03-18T17:28:29.085Z,5.57
2019-03-18T17:32:41.974Z,8.13
2019-03-18T17:36:54.538Z,6.07
2019-03-18T17:41:09.245Z,4.70
2019-03-18T17:45:21.215Z,6.03
2019-03-18T17:49:33.683Z,3.73
2019-03-18T17:53:46.076Z,5.23
2019-03-18T17:57:58.869Z,5.63
2019-03-18T18:02:11.320Z,4.33
2019-03-18T18:06:23.716Z,6.20
2019-03-18T18:10:35.932Z,7.57
2019-03-18T18:14:48.640Z,5.60
2019-03-18T18:19:01.083Z,4.47
2019-03-18T18:23:14.884Z,3.80
2019-03-18T18:27:28.033Z,4.77
2019-03-18T18:31:40.444Z,5.67
2019-03-18T18:35:52.785Z,8.57
2019-03-18T18:40:06.270Z,8.00
2019-03-18T18:44:19.119Z,7.47
2019-03-18T18:48:31.470Z,8.47
2019-03-18T18:52:43.777Z,6.90
2019-03-18T18:56:56.575Z,11.63
2019-03-18T19:01:09.036Z,8.27
2019-03-18T19:05:21.458Z,6.30
2019-03-18T19:09:33.847Z,5.97
2019-03-18T19:13:46.544Z,9.67
2019-03-18T19:17:58.991Z,9.90
2019-03-18T19:22:11.207Z,8.53
2019-03-18T19:26:23.516Z,6.37
2019-03-18T19:30:36.373Z,7.17
2019-03-18T19:34:48.939Z,10.10
2019-03-18T19:39:01.666Z,5.03
2019-03-18T19:43:14.313Z,9.13
2019-03-18T19:47:26.750Z,7.33
2019-03-18T19:51:39.774Z,6.30
2019-03-18T19:55:52.383Z,7.00
2019-03-18T20:00:05.657Z,5.83
2019-03-18T20:04:18.026Z,8.53
2019-03-18T20:08:31.469Z,6.80
2019-03-18T20:12:43.952Z,7.33
2019-03-18T20:16:56.675Z,6.53
2019-03-18T20:21:09.233Z,8.57
2019-03-18T20:25:21.637Z,7.40
2019-03-18T20:29:34.017Z,8.90
2019-03-18T20:33:46.801Z,7.07
2019-03-18T20:38:01.625Z,5.37
2019-03-18T20:42:14.173Z,6.80
2019-03-18T20:46:26.647Z,5.83
2019-03-18T20:50:39.011Z,7.63
2019-03-18T20:54:52.319Z,7.77
2019-03-18T20:59:06.457Z,7.50
2019-03-18T21:03:21.154Z,5.70
2019-03-18T21:07:33.959Z,8.07
2019-03-18T21:11:46.482Z,6.80
2019-03-18T21:15:59.001Z,8.70
2019-03-18T21:20:14.446Z,5.70
2019-03-18T21:24:31.252Z,7.70
2019-03-18T21:28:46.225Z,6.10
2019-03-18T21:33:00.482Z,7.27
2019-03-18T21:37:13.824Z,6.47
2019-03-18T21:41:27.298Z,8.53
2019-03-18T21:45:40.537Z,8.83
2019-03-18T21:49:55.132Z,5.90
2019-03-18T21:54:10.344Z,4.77
2019-03-18T21:58:24.630Z,5.53
2019-03-18T22:02:38.758Z,4.87
2019-03-18T22:06:52.948Z,5.53
2019-03-18T22:11:05.896Z,6.50
2019-03-18T22:15:20.275Z,4.93
2019-03-18T22:19:34.875Z,5.30
2019-03-18T22:23:48.259Z,5.17
2019-03-18T22:28:01.971Z,5.13
2019-03-18T22:32:17.112Z,7.23
2019-03-18T22:36:30.115Z,5.80
2019-03-18T22:40:45.631Z,4.37
2019-03-18T22:44:58.709Z,5.40
2019-03-18T22:49:11.343Z,9.50
2019-03-18T22:53:23.935Z,6.53
2019-03-18T22:57:36.872Z,6.33
2019-03-18T23:01:49.527Z,6.70
2019-03-18T23:06:01.786Z,9.43
2019-03-18T23:10:15.107Z,8.43
2019-03-18T23:14:27.588Z,5.03
2019-03-18T23:18:40.200Z,8.60
2019-03-18T23:22:52.733Z,7.67
2019-03-18T23:27:06.196Z,9.57
2019-03-18T23:31:18.645Z,5.43
2019-03-18T23:35:31.503Z,6.53
2019-03-18T23:39:44.156Z,15.67
2019-03-18T23:43:57.561Z,12.63
2019-03-18T23:48:09.920Z,10.03
2019-03-18T23:52:22.222Z,7.70
2019-03-18T23:56:35.621Z,9.00
